Cassville, WV (26527)

6:07 PM EDT on August 03, 2015 (GMT -0400)
WVU Evansdale NRCCE | | Change Station
CLOSE
Current Station
Personal Weather Station
Location: Morgantown, WV
Elevation: 1115 ft
Nearby Weather Stations

Elev 1115 ft 39.65 °N, 79.97 °W | Updated 6 seconds ago

Mostly Cloudy
Mostly Cloudy
82.9 °F
Feels Like 84 °F
N
7.8
Wind Variable Wind from SW
Gusts 7.8 mph

Today
High -- | Low -- °F
--% Chance of Precip.
Yesterday
High -- | Low -- °F
Precip. -- in
6:21 AM 8:31 PM
Waning Gibbous, 83% visible
Pressure 29.83 in
Visibility 10.0 miles
Clouds Mostly Cloudy 6000 ft
Mostly Cloudy 7500 ft
Heat Index 84 °F
Dew Point 63 °F
Humidity 51%
Rainfall 0.00 in
Snow Depth Not available.
UV 2 out of 12
Pollen 5.80 out of 12
Air Quality Not available.
Flu Activity Not available.
METAR KMGW 032153Z 21007KT 170V230 10SM BKN060 BKN075 29/14 A2986 RMK AO2 SLP100 T02940144

More Conditions Fewer Conditions

Pressure 29.83 in
Visibility 10.0 miles
Clouds Mostly Cloudy 6000 ft
Mostly Cloudy 7500 ft
Heat Index 84 °F
Dew Point 63 °F
Humidity 51%
Rainfall 0.00 in
Snow Depth Not available.
UV 2 out of 12
Pollen 5.80 out of 12
Air Quality Not available.
Flu Activity Not available.
METAR KMGW 032153Z 21007KT 170V230 10SM BKN060 BKN075 29/14 A2986 RMK AO2 SLP100 T02940144

More Conditions Fewer Conditions

10-Day Weather Forecast

×

Almanac

Astronomy

Aug. 03, 2015 Rise Set
Actual Time
Civil Twilight
Nautical Twilight
Astronomical Twilight
Moon
Length of Visible Light
Length of Day
Tomorrow will be .
, % of the Moon is Illuminated

Today's Extremes

State Highs State Lows

Community

WunderPhotos

Upload Photos

1,843,781 photos uploaded!

WunderBlogs® & News

Nearby

Air Quality

  Air Quality AQ Index Pollutant
Not available.

Snow Depth

Station Depth Elevation

Earthquake Activity

City Distance Mag. Time & Date
Minimum magnitude displayed is 2.5.

Coastal Water Temperatures

Place Temperature

Stations

Nearby Weather Stations

Station Location Temp. Windchill Dew Point Humidity Wind Precip. Elev Updated Type